Archival Weather

Republic

Farmingdale, New York (KFRG)

Report from: Saturday, February 17, 2024 9:53 PM EST
Current time: Friday, June 21, 2024 9:08 PM EDT

Current weather – Weather history – Daily summaries
Weather forecast

Temperature-2.2°C (28.0°F)
Wind chill-5.7°C (21.7°F)
Dew point-12.2°C (10.0°F)
Winds 5 kts (2.6 m/s, 5.8 mph) West-Northwest (300°)
Visibility10 mi. (16.1 km)
Clouds Sky clear
Altimeter29.90 in.Hg (1013 mB)
Relative humidity46 %
Density altitude-2,040 ft. (-622 m)
Sea-level pressure101.2 kPa (1012 mB, 29.90 in.Hg)
Remarks Fully automated report
Automated weather observing station without precipitation discriminator
Freezing rain sensor not operating
Pressure rising more slowly
Flight conditions Visual Meteorological Conditions
Raw dataKFRG 180253Z AUTO 30005KT 10SM CLR M02/M12 A2990 RMK AO1 SLP124 T10221122 51023 FZRANO
An error has occurred. This application may no longer respond until reloaded. Reload 🗙